Address 0x98af038ece17851593570f53e21cb03fee909679

 
 
Txn Hash Method
Block
From
To
Value [Txn Fee]
0x6d0dba67d677474bb5d6ececb20b8eb48feca806226717c3e060d6d88446a6e8Create Order300623592022-06-27 14:29:063 days 4 hrs ago0x98af038ece17851593570f53e21cb03fee909679OUT 0x13794ce30b05b4e6f04820d5064d089ec2afdaeb0 MATIC0.009732334102 159.103058723
0x15a882affb2f70a8c5dccebdc4f3fc720b2dc9769dafcf59ad9ebdabcd46e228Create Order300622972022-06-27 14:26:583 days 4 hrs ago0x98af038ece17851593570f53e21cb03fee909679OUT 0x13794ce30b05b4e6f04820d5064d089ec2afdaeb0 MATIC0.014965615931 244.656137517
0xc79767d56120747f23898ca0c30b0d6071e8b26a07ab9a1f03299c662357d796Create Order300621892022-06-27 14:23:143 days 4 hrs ago0x98af038ece17851593570f53e21cb03fee909679OUT 0x13794ce30b05b4e6f04820d5064d089ec2afdaeb0 MATIC0.027180086939 444.336879835
0x3dbcecbc6a0207d691c495aef3429940fcb9b976af4464f796edc564ee8ddf38Swap300584272022-06-27 12:04:123 days 6 hrs ago0x98af038ece17851593570f53e21cb03fee909679OUT Metamask: Swap Router0 MATIC0.030380639049 83.605009175
0xd5db2a8b7399e01bd1eebacf2b860aa7abab7b4f68b6e0bdfec9e48c4bdd578fSwap300583972022-06-27 12:03:123 days 6 hrs ago0x98af038ece17851593570f53e21cb03fee909679OUT Metamask: Swap Router0 MATIC0.017358299451 79.799834736
0x9360dc09ae8ffac1c76fa26ae688dd6a7e7cd4356c443a44b7b0f45bbe0634c4Transfer297993112022-06-20 17:49:2910 days 51 mins ago0x98af038ece17851593570f53e21cb03fee909679OUT USD Coin0 MATIC0.001762560014 30.000000245
0xd5a1249e18ccb9abac4c3fe0d72098644987879639a88ed7f5df4b737147dedeTransfer297991432022-06-20 17:43:4110 days 57 mins ago0x98af038ece17851593570f53e21cb03fee909679OUT USD Coin0 MATIC0.001460254981 35.787054746
0x83097d9ce8bd68cd34efe48470c987e727aee03d4721ae0c71c5d3e39395477bSwap Exact Token...297988362022-06-20 17:30:1510 days 1 hr ago0x98af038ece17851593570f53e21cb03fee909679OUT SushiSwap: Router0 MATIC0.00784304004 40.073371454
0x754cf64c8856ceeca5e30567911f5ee982d1cbd78f576449856ae8d3ac033396Swap Exact Token...297988062022-06-20 17:27:1510 days 1 hr ago0x98af038ece17851593570f53e21cb03fee909679OUT SushiSwap: Router0 MATIC0.004569703094 39.200019683
0xebb614a8eafaddff92855ab53182541b36a8bc7f3db3128af15c4d3d883fdf6eCreate Order296797182022-06-17 14:31:5413 days 4 hrs ago0x98af038ece17851593570f53e21cb03fee909679OUT 0x13794ce30b05b4e6f04820d5064d089ec2afdaeb0 MATIC0.005893209502 38.006484687
0x1b61cb8098363be64cb7699358209117b906df8d3b97413e95452e570ffdda48Create Order296796452022-06-17 14:29:2413 days 4 hrs ago0x98af038ece17851593570f53e21cb03fee909679OUT 0x13794ce30b05b4e6f04820d5064d089ec2afdaeb0 MATIC0.001835129116 30.000475989
0x506159952999dd1feb2a11c9cdf4464460e57318da85f2b53a12dcbeaa2e3975Transfer295171792022-06-13 12:32:5117 days 6 hrs ago0x98af038ece17851593570f53e21cb03fee909679OUT USD Coin0 MATIC0.007246998941 173.9892188
0xd75ddc2d5de7e341852181c50de92b5b1a47c4502d4bcabbe2e301467d2b412cSwap295171112022-06-13 12:30:3117 days 6 hrs ago0x98af038ece17851593570f53e21cb03fee909679OUT Metamask: Swap Router0 MATIC0.157729878541 307.430891909
0xa779c71401fba17443f482936169c0a6bc66db738f7693178e108adffe1e290eSwap295170562022-06-13 12:28:4117 days 6 hrs ago0x98af038ece17851593570f53e21cb03fee909679OUT Metamask: Swap Router0 MATIC0.053638245035 263.097654584
0x6ba054394a344a13307ed33b79095149a7a3bd3adc2ab79aa6a0d3b6baa9f773Transfer295166492022-06-13 12:14:3917 days 6 hrs ago0x98af038ece17851593570f53e21cb03fee909679OUT USD Coin0 MATIC0.02805119524 673.465745715
0x8f349d08b62b87d2a3e857569e6428d5e5569c5eb2a7df3077c8c081d51858b8Transfer295165012022-06-13 12:09:3517 days 6 hrs ago0x98af038ece17851593570f53e21cb03fee909679OUT USD Coin0 MATIC0.031778831666 500.138993808
0xd9cf1baa24e1d138a8f36e68d1f396b14a408ef111bba348bc44b4fbaab26f4fCreate Order294333582022-06-11 11:02:4519 days 7 hrs ago0x98af038ece17851593570f53e21cb03fee909679OUT 0x13794ce30b05b4e6f04820d5064d089ec2afdaeb0 MATIC0.015071873585 97.194000034
0x1d250894e22167dd56a75c15ef5af6f681d42f0b6a569cc9f1ee6f4326642c16Execute Order294058652022-06-10 18:56:3519 days 23 hrs ago0x98af038ece17851593570f53e21cb03fee909679OUT 0x13794ce30b05b4e6f04820d5064d089ec2afdaeb0 MATIC0.004693348456 32.461050021
0x57cda6e89d3837bd2ebf6fb150176d6bd734a2361e1abba03331d63620c755d7Swap294058342022-06-10 18:55:3319 days 23 hrs ago0x98af038ece17851593570f53e21cb03fee909679OUT Metamask: Swap Router0 MATIC0.015080054783 30.380000007
0xeea171265d93e9db6a96167180487a52dd2882a58c88bc7d8458a1ed165db999Approve294058342022-06-10 18:55:3319 days 23 hrs ago0x98af038ece17851593570f53e21cb03fee909679OUT USD Coin0 MATIC0.00177558948 30.380000007
0xdf606d1189e537b917879a22bba4100d1be8c66dcafd37684c726e28ea353ccdCreate Order294029202022-06-10 17:13:1020 days 1 hr ago0x98af038ece17851593570f53e21cb03fee909679OUT 0x13794ce30b05b4e6f04820d5064d089ec2afdaeb0 MATIC0.002427943412 39.706015127
0xb7100447b58704117ba6604ef2ba9dc4a4c8acdc3b57c50b2c31ac0e1217beb9Create Order294028962022-06-10 17:12:2220 days 1 hr ago0x98af038ece17851593570f53e21cb03fee909679OUT 0x13794ce30b05b4e6f04820d5064d089ec2afdaeb0 MATIC0.002846567515 46.552095178
0x195f650f47d2e3238657317546aafd5a0a19c642c1f3beb7f2dce4c567d190b5Create Order294028572022-06-10 17:11:0020 days 1 hr ago0x98af038ece17851593570f53e21cb03fee909679OUT 0x13794ce30b05b4e6f04820d5064d089ec2afdaeb0 MATIC0.002379646188 38.916173678
0x0a679a95ba4c5db16684018a22ab593babfc1180503cd3c6587aa5175fc99b65Swap Exact Token...293935022022-06-10 11:34:1120 days 7 hrs ago0x98af038ece17851593570f53e21cb03fee909679OUT SushiSwap: Router0 MATIC0.0134364775 75.230130738
0xf936985961ad38fdf96e44c4b4a7e69c0b1c41b3f1bbac1f31c57e79bc959cfcSwap293929352022-06-10 11:14:4120 days 7 hrs ago0x98af038ece17851593570f53e21cb03fee909679OUT Metamask: Swap Router0 MATIC0.016792542362 56.53445542
[ Download CSV Export 
Latest 1 internal transaction
Parent Txn Hash Block From To Value
0x6570d1755d7104688faf12c674e53cef8a05cead41d0bc34f2ee553e4e340448285138992022-05-19 16:02:3342 days 2 hrs ago 0xc5017be80b4446988e8686168396289a9a62668e0x98af038ece17851593570f53e21cb03fee90967910.584352078038252652 MATIC
[ Download CSV Export 
Loading

Contract Name:
0 MATIC

Compiler Version
0

Optimization Enabled:
0 MATIC

Other Settings:
-NA-
Block Transaction Gas Used Reward
Age Block Fee Address BC Fee Address Voting Power Jailed Incoming
Block Uncle Number Difficulty Gas Used Reward
Loading
Loading
Make sure to use the "Vote Down" button for any spammy posts, and the "Vote Up" for interesting conversations.